sensor_id;sensor_type;location;lat;lon;timestamp;pressure;altitude;pressure_sealevel;temperature;humidity
55604;BME280;41468;48.838;9.330;2023-04-20T00:09:29;98316.84;;;4.98;75.21
55604;BME280;41468;48.838;9.330;2023-04-20T00:11:56;98313.16;;;5.24;75.41
55604;BME280;41468;48.838;9.330;2023-04-20T00:14:22;98312.34;;;5.23;75.69
55604;BME280;41468;48.838;9.330;2023-04-20T00:16:49;98306.75;;;4.86;76.87
55604;BME280;41468;48.838;9.330;2023-04-20T00:19:16;98304.66;;;4.92;77.76
55604;BME280;41468;48.838;9.330;2023-04-20T00:21:43;98300.41;;;4.82;77.38
55604;BME280;41468;48.838;9.330;2023-04-20T00:24:10;98302.09;;;4.45;78.84
55604;BME280;41468;48.838;9.330;2023-04-20T00:26:37;98297.88;;;4.56;78.26
55604;BME280;41468;48.838;9.330;2023-04-20T00:29:04;98294.28;;;4.73;77.93
55604;BME280;41468;48.838;9.330;2023-04-20T00:31:37;98295.53;;;4.76;77.15
55604;BME280;41468;48.838;9.330;2023-04-20T00:34:04;98282.66;;;4.52;78.48
55604;BME280;41468;48.838;9.330;2023-04-20T00:36:31;98289.69;;;4.44;78.62
55604;BME280;41468;48.838;9.330;2023-04-20T00:38:57;98275.53;;;4.68;78.45
55604;BME280;41468;48.838;9.330;2023-04-20T00:41:24;98276.66;;;4.46;78.41
55604;BME280;41468;48.838;9.330;2023-04-20T00:43:52;98272.69;;;4.43;78.80
55604;BME280;41468;48.838;9.330;2023-04-20T00:46:20;98268.84;;;4.45;79.12
55604;BME280;41468;48.838;9.330;2023-04-20T00:48:49;98269.78;;;4.49;78.97
55604;BME280;41468;48.838;9.330;2023-04-20T00:51:17;98265.44;;;4.35;79.41
55604;BME280;41468;48.838;9.330;2023-04-20T00:53:45;98256.56;;;4.26;80.23
55604;BME280;41468;48.838;9.330;2023-04-20T00:56:13;98255.94;;;4.50;79.37
55604;BME280;41468;48.838;9.330;2023-04-20T00:58:41;98256.34;;;4.61;79.23
55604;BME280;41468;48.838;9.330;2023-04-20T01:01:09;98249.59;;;4.67;78.25
55604;BME280;41468;48.838;9.330;2023-04-20T01:03:38;98260.22;;;4.93;77.58
55604;BME280;41468;48.838;9.330;2023-04-20T01:06:06;98253.38;;;4.75;77.79
55604;BME280;41468;48.838;9.330;2023-04-20T01:08:33;98248.34;;;4.43;79.53
55604;BME280;41468;48.838;9.330;2023-04-20T01:11:00;98244.72;;;4.39;80.91
55604;BME280;41468;48.838;9.330;2023-04-20T01:13:26;98235.72;;;4.06;82.07
55604;BME280;41468;48.838;9.330;2023-04-20T01:15:57;98229.59;;;3.88;82.25
55604;BME280;41468;48.838;9.330;2023-04-20T01:18:25;98227.97;;;3.95;81.78
55604;BME280;41468;48.838;9.330;2023-04-20T01:20:53;98223.75;;;3.77;82.63
55604;BME280;41468;48.838;9.330;2023-04-20T01:23:27;98214.34;;;3.83;83.13
55604;BME280;41468;48.838;9.330;2023-04-20T01:25:54;98223.94;;;3.72;82.68
55604;BME280;41468;48.838;9.330;2023-04-20T01:28:21;98200.84;;;3.83;83.35
55604;BME280;41468;48.838;9.330;2023-04-20T01:30:48;98205.78;;;3.81;82.40
55604;BME280;41468;48.838;9.330;2023-04-20T01:33:29;98205.59;;;3.86;82.07
55604;BME280;41468;48.838;9.330;2023-04-20T01:35:55;98196.09;;;3.80;82.78
55604;BME280;41468;48.838;9.330;2023-04-20T01:38:23;98197.63;;;3.60;83.18
55604;BME280;41468;48.838;9.330;2023-04-20T01:40:50;98193.38;;;3.50;82.61
55604;BME280;41468;48.838;9.330;2023-04-20T01:43:18;98189.75;;;3.38;82.88
55604;BME280;41468;48.838;9.330;2023-04-20T01:45:45;98190.88;;;3.37;83.72
55604;BME280;41468;48.838;9.330;2023-04-20T01:48:18;98177.59;;;3.61;83.33
55604;BME280;41468;48.838;9.330;2023-04-20T01:50:45;98185.94;;;3.77;82.71
55604;BME280;41468;48.838;9.330;2023-04-20T01:53:11;98180.59;;;3.68;83.25
55604;BME280;41468;48.838;9.330;2023-04-20T01:55:39;98185.94;;;3.77;82.67
55604;BME280;41468;48.838;9.330;2023-04-20T01:58:06;98172.63;;;3.72;82.53
55604;BME280;41468;48.838;9.330;2023-04-20T02:00:39;98164.81;;;3.49;83.15
55604;BME280;41468;48.838;9.330;2023-04-20T02:03:06;98171.06;;;3.71;82.53
55604;BME280;41468;48.838;9.330;2023-04-20T02:05:33;98172.25;;;3.82;81.81
55604;BME280;41468;48.838;9.330;2023-04-20T02:08:00;98165.69;;;3.62;82.78
55604;BME280;41468;48.838;9.330;2023-04-20T02:10:26;98163.84;;;3.45;83.63
55604;BME280;41468;48.838;9.330;2023-04-20T02:12:53;98159.41;;;3.49;84.41
55604;BME280;41468;48.838;9.330;2023-04-20T02:15:20;98171.66;;;3.38;85.18
55604;BME280;41468;48.838;9.330;2023-04-20T02:17:46;98158.81;;;3.73;83.74
55604;BME280;41468;48.838;9.330;2023-04-20T02:20:18;98160.31;;;3.53;83.66
55604;BME280;41468;48.838;9.330;2023-04-20T02:22:47;98161.22;;;3.66;82.71
55604;BME280;41468;48.838;9.330;2023-04-20T02:25:14;98153.78;;;3.54;83.15
55604;BME280;41468;48.838;9.330;2023-04-20T02:27:41;98148.38;;;3.63;82.48
55604;BME280;41468;48.838;9.330;2023-04-20T02:30:08;98153.47;;;3.56;83.23
55604;BME280;41468;48.838;9.330;2023-04-20T02:32:35;98152.41;;;3.48;82.66
55604;BME280;41468;48.838;9.330;2023-04-20T02:35:03;98152.97;;;3.24;83.57
55604;BME280;41468;48.838;9.330;2023-04-20T02:37:30;98148.78;;;3.44;83.01
55604;BME280;41468;48.838;9.330;2023-04-20T02:39:57;98143.00;;;3.54;83.38
55604;BME280;41468;48.838;9.330;2023-04-20T02:42:24;98138.59;;;3.50;83.20
55604;BME280;41468;48.838;9.330;2023-04-20T02:44:51;98141.97;;;3.68;83.52
55604;BME280;41468;48.838;9.330;2023-04-20T02:47:18;98139.31;;;3.59;83.29
55604;BME280;41468;48.838;9.330;2023-04-20T02:49:45;98142.13;;;3.42;84.33
55604;BME280;41468;48.838;9.330;2023-04-20T02:52:13;98148.34;;;3.34;85.04
55604;BME280;41468;48.838;9.330;2023-04-20T02:54:39;98144.97;;;3.45;83.81
55604;BME280;41468;48.838;9.330;2023-04-20T02:57:06;98134.03;;;3.33;84.33
55604;BME280;41468;48.838;9.330;2023-04-20T02:59:33;98133.00;;;3.17;85.12
55604;BME280;41468;48.838;9.330;2023-04-20T03:02:00;98121.03;;;3.35;84.36
55604;BME280;41468;48.838;9.330;2023-04-20T03:04:27;98128.78;;;2.98;84.65
55604;BME280;41468;48.838;9.330;2023-04-20T03:06:53;98123.06;;;3.00;85.17
55604;BME280;41468;48.838;9.330;2023-04-20T03:09:20;98130.28;;;3.17;84.94
55604;BME280;41468;48.838;9.330;2023-04-20T03:11:48;98123.69;;;3.05;85.16
55604;BME280;41468;48.838;9.330;2023-04-20T03:14:15;98114.50;;;3.06;84.86
55604;BME280;41468;48.838;9.330;2023-04-20T03:16:41;98119.69;;;3.12;84.29
55604;BME280;41468;48.838;9.330;2023-04-20T03:19:09;98122.81;;;3.31;84.34
55604;BME280;41468;48.838;9.330;2023-04-20T03:21:35;98112.50;;;3.24;84.52
55604;BME280;41468;48.838;9.330;2023-04-20T03:24:02;98115.00;;;3.29;84.36
55604;BME280;41468;48.838;9.330;2023-04-20T03:26:29;98115.66;;;2.79;85.43
55604;BME280;41468;48.838;9.330;2023-04-20T03:28:56;98121.78;;;2.97;84.82
55604;BME280;41468;48.838;9.330;2023-04-20T03:31:23;98112.81;;;2.76;84.26
55604;BME280;41468;48.838;9.330;2023-04-20T03:33:49;98109.22;;;2.46;86.40
55604;BME280;41468;48.838;9.330;2023-04-20T03:36:16;98114.56;;;2.63;87.30
55604;BME280;41468;48.838;9.330;2023-04-20T03:38:43;98114.91;;;2.44;87.26
55604;BME280;41468;48.838;9.330;2023-04-20T03:41:09;98113.31;;;2.60;86.11
55604;BME280;41468;48.838;9.330;2023-04-20T03:43:36;98114.03;;;2.96;84.62
55604;BME280;41468;48.838;9.330;2023-04-20T03:46:03;98111.38;;;2.78;84.05
55604;BME280;41468;48.838;9.330;2023-04-20T03:48:29;98105.44;;;3.02;83.97
55604;BME280;41468;48.838;9.330;2023-04-20T03:50:56;98106.44;;;2.89;83.63
55604;BME280;41468;48.838;9.330;2023-04-20T03:53:24;98107.25;;;2.81;84.51
55604;BME280;41468;48.838;9.330;2023-04-20T03:55:51;98102.19;;;2.71;85.06
55604;BME280;41468;48.838;9.330;2023-04-20T03:58:18;98092.63;;;2.91;84.30
55604;BME280;41468;48.838;9.330;2023-04-20T04:00:45;98092.19;;;2.71;85.38
55604;BME280;41468;48.838;9.330;2023-04-20T04:03:11;98089.19;;;2.73;85.34
55604;BME280;41468;48.838;9.330;2023-04-20T04:05:41;98092.63;;;2.91;84.61
55604;BME280;41468;48.838;9.330;2023-04-20T04:08:08;98090.75;;;2.74;84.13
55604;BME280;41468;48.838;9.330;2023-04-20T04:10:35;98092.34;;;2.83;84.15
55604;BME280;41468;48.838;9.330;2023-04-20T04:13:01;98095.81;;;2.84;84.30
55604;BME280;41468;48.838;9.330;2023-04-20T04:15:28;98092.91;;;2.98;84.51
55604;BME280;41468;48.838;9.330;2023-04-20T04:17:55;98091.88;;;2.73;83.97
55604;BME280;41468;48.838;9.330;2023-04-20T04:20:21;98092.25;;;2.45;85.68
55604;BME280;41468;48.838;9.330;2023-04-20T04:22:48;98097.91;;;2.78;84.88
55604;BME280;41468;48.838;9.330;2023-04-20T04:25:15;98093.91;;;2.84;85.02
55604;BME280;41468;48.838;9.330;2023-04-20T04:27:43;98102.66;;;2.73;85.80
55604;BME280;41468;48.838;9.330;2023-04-20T04:30:12;98094.75;;;2.68;85.98
55604;BME280;41468;48.838;9.330;2023-04-20T04:32:43;98094.53;;;2.90;84.94
55604;BME280;41468;48.838;9.330;2023-04-20T04:35:12;98093.41;;;2.91;85.09
55604;BME280;41468;48.838;9.330;2023-04-20T04:37:45;98090.13;;;2.68;86.00
55604;BME280;41468;48.838;9.330;2023-04-20T04:40:12;98092.38;;;2.75;86.04
55604;BME280;41468;48.838;9.330;2023-04-20T04:42:39;98091.72;;;2.78;85.38
55604;BME280;41468;48.838;9.330;2023-04-20T04:45:06;98089.84;;;2.52;86.00
55604;BME280;41468;48.838;9.330;2023-04-20T04:47:36;98096.19;;;2.56;86.81
55604;BME280;41468;48.838;9.330;2023-04-20T04:50:04;98092.38;;;2.57;86.71
55604;BME280;41468;48.838;9.330;2023-04-20T04:52:32;98092.09;;;2.50;86.78
55604;BME280;41468;48.838;9.330;2023-04-20T04:54:58;98091.94;;;2.55;86.77
55604;BME280;41468;48.838;9.330;2023-04-20T04:57:25;98091.78;;;2.43;87.18
55604;BME280;41468;48.838;9.330;2023-04-20T04:59:52;98088.00;;;2.27;87.72
55604;BME280;41468;48.838;9.330;2023-04-20T05:02:19;98088.63;;;2.32;87.74
55604;BME280;41468;48.838;9.330;2023-04-20T05:04:46;98088.94;;;2.31;87.93
55604;BME280;41468;48.838;9.330;2023-04-20T05:07:13;98094.63;;;2.55;87.72
55604;BME280;41468;48.838;9.330;2023-04-20T05:09:40;98089.63;;;2.83;86.14
55604;BME280;41468;48.838;9.330;2023-04-20T05:12:07;98097.13;;;2.69;86.55
55604;BME280;41468;48.838;9.330;2023-04-20T05:14:34;98100.81;;;3.50;88.43
55604;BME280;41468;48.838;9.330;2023-04-20T05:17:01;98104.25;;;3.21;85.08
55604;BME280;41468;48.838;9.330;2023-04-20T05:19:27;98098.16;;;3.41;84.53
55604;BME280;41468;48.838;9.330;2023-04-20T05:21:54;98098.22;;;3.24;85.24
55604;BME280;41468;48.838;9.330;2023-04-20T05:24:21;98101.66;;;2.95;86.07
55604;BME280;41468;48.838;9.330;2023-04-20T05:26:48;98097.84;;;2.96;86.62
55604;BME280;41468;48.838;9.330;2023-04-20T05:29:15;98101.69;;;2.86;87.31
55604;BME280;41468;48.838;9.330;2023-04-20T05:31:42;98109.00;;;3.24;86.12
55604;BME280;41468;48.838;9.330;2023-04-20T05:34:10;98095.25;;;3.46;84.42
55604;BME280;41468;48.838;9.330;2023-04-20T05:36:38;98100.16;;;3.53;83.52
55604;BME280;41468;48.838;9.330;2023-04-20T05:39:05;98092.09;;;3.44;85.20
55604;BME280;41468;48.838;9.330;2023-04-20T05:41:32;98089.28;;;3.62;84.81
55604;BME280;41468;48.838;9.330;2023-04-20T05:43:58;98093.84;;;3.70;84.09
55604;BME280;41468;48.838;9.330;2023-04-20T05:46:25;98100.31;;;3.78;84.75
55604;BME280;41468;48.838;9.330;2023-04-20T05:48:56;98104.66;;;3.70;85.24
55604;BME280;41468;48.838;9.330;2023-04-20T05:51:23;98097.31;;;3.79;83.65
55604;BME280;41468;48.838;9.330;2023-04-20T05:54:00;98099.94;;;4.09;82.70
55604;BME280;41468;48.838;9.330;2023-04-20T05:56:27;98088.31;;;4.29;80.13
55604;BME280;41468;48.838;9.330;2023-04-20T05:58:54;98101.78;;;4.38;80.64
55604;BME280;41468;48.838;9.330;2023-04-20T06:01:21;98096.25;;;4.68;82.34
55604;BME280;41468;48.838;9.330;2023-04-20T06:03:48;98093.25;;;4.48;81.30
55604;BME280;41468;48.838;9.330;2023-04-20T06:06:21;98097.91;;;4.60;79.63
55604;BME280;41468;48.838;9.330;2023-04-20T06:08:48;98097.56;;;4.61;79.53
55604;BME280;41468;48.838;9.330;2023-04-20T06:11:16;98089.75;;;4.81;79.62
55604;BME280;41468;48.838;9.330;2023-04-20T06:13:43;98089.41;;;4.82;79.67
55604;BME280;41468;48.838;9.330;2023-04-20T06:16:10;98085.81;;;4.91;76.95
55604;BME280;41468;48.838;9.330;2023-04-20T06:18:36;98093.53;;;5.13;75.88
55604;BME280;41468;48.838;9.330;2023-04-20T06:21:03;98089.81;;;5.42;75.62
55604;BME280;41468;48.838;9.330;2023-04-20T06:23:30;98090.59;;;5.30;77.31
55604;BME280;41468;48.838;9.330;2023-04-20T06:25:56;98094.00;;;5.64;74.61
55604;BME280;41468;48.838;9.330;2023-04-20T06:28:23;98088.00;;;5.46;75.18
55604;BME280;41468;48.838;9.330;2023-04-20T06:30:50;98084.63;;;5.37;75.79
55604;BME280;41468;48.838;9.330;2023-04-20T06:33:16;98078.50;;;5.77;74.98
55604;BME280;41468;48.838;9.330;2023-04-20T06:35:43;98073.66;;;5.70;74.21
55604;BME280;41468;48.838;9.330;2023-04-20T06:38:10;98069.81;;;5.71;74.59
55604;BME280;41468;48.838;9.330;2023-04-20T06:40:37;98071.09;;;6.14;73.22
55604;BME280;41468;48.838;9.330;2023-04-20T06:43:03;98072.84;;;6.35;72.46
55604;BME280;41468;48.838;9.330;2023-04-20T06:45:30;98066.63;;;6.62;71.73
55604;BME280;41468;48.838;9.330;2023-04-20T06:47:59;98069.69;;;6.61;72.35
55604;BME280;41468;48.838;9.330;2023-04-20T06:50:26;98070.38;;;6.74;72.29
55604;BME280;41468;48.838;9.330;2023-04-20T06:52:52;98071.66;;;6.92;72.43
55604;BME280;41468;48.838;9.330;2023-04-20T06:55:19;98077.53;;;7.10;70.34
55604;BME280;41468;48.838;9.330;2023-04-20T06:57:46;98074.03;;;7.10;72.37
55604;BME280;41468;48.838;9.330;2023-04-20T07:00:13;98077.78;;;7.21;71.10
55604;BME280;41468;48.838;9.330;2023-04-20T07:02:45;98069.28;;;7.38;72.28
55604;BME280;41468;48.838;9.330;2023-04-20T07:05:13;98076.94;;;7.68;71.95
55604;BME280;41468;48.838;9.330;2023-04-20T07:07:40;98075.97;;;7.76;72.08
55604;BME280;41468;48.838;9.330;2023-04-20T07:10:08;98069.97;;;7.86;70.72
55604;BME280;41468;48.838;9.330;2023-04-20T07:12:36;98074.28;;;7.87;69.55
55604;BME280;41468;48.838;9.330;2023-04-20T07:15:04;98059.50;;;7.69;69.64
55604;BME280;41468;48.838;9.330;2023-04-20T07:17:31;98059.72;;;7.95;69.18
55604;BME280;41468;48.838;9.330;2023-04-20T07:19:58;98063.75;;;7.86;69.55
55604;BME280;41468;48.838;9.330;2023-04-20T07:22:33;98066.69;;;7.77;68.36
55604;BME280;41468;48.838;9.330;2023-04-20T07:25:00;98062.06;;;7.97;69.18
55604;BME280;41468;48.838;9.330;2023-04-20T07:27:29;98065.41;;;7.90;71.19
55604;BME280;41468;48.838;9.330;2023-04-20T07:29:57;98064.56;;;8.06;69.46
55604;BME280;41468;48.838;9.330;2023-04-20T07:32:24;98065.84;;;7.92;69.44
55604;BME280;41468;48.838;9.330;2023-04-20T07:34:51;98058.66;;;7.84;69.65
55604;BME280;41468;48.838;9.330;2023-04-20T07:37:18;98068.88;;;7.71;68.87
55604;BME280;41468;48.838;9.330;2023-04-20T07:39:52;98067.31;;;7.55;68.39
55604;BME280;41468;48.838;9.330;2023-04-20T07:42:19;98055.69;;;7.38;70.30
55604;BME280;41468;48.838;9.330;2023-04-20T07:44:47;98060.84;;;7.59;70.66
55604;BME280;41468;48.838;9.330;2023-04-20T07:47:14;98064.47;;;7.83;70.52
55604;BME280;41468;48.838;9.330;2023-04-20T07:49:41;98061.84;;;8.06;68.40
55604;BME280;41468;48.838;9.330;2023-04-20T07:52:08;98058.44;;;8.28;68.62
55604;BME280;41468;48.838;9.330;2023-04-20T07:54:43;98064.44;;;8.57;66.67
55604;BME280;41468;48.838;9.330;2023-04-20T07:57:10;98061.31;;;8.55;66.72
55604;BME280;41468;48.838;9.330;2023-04-20T07:59:37;98064.31;;;8.50;67.35
55604;BME280;41468;48.838;9.330;2023-04-20T08:02:05;98062.97;;;7.85;68.35
55604;BME280;41468;48.838;9.330;2023-04-20T08:04:32;98056.56;;;7.93;68.57
55604;BME280;41468;48.838;9.330;2023-04-20T08:06:59;98070.25;;;7.81;69.52
55604;BME280;41468;48.838;9.330;2023-04-20T08:09:26;98063.59;;;7.79;69.20
55604;BME280;41468;48.838;9.330;2023-04-20T08:11:54;98062.25;;;7.88;69.56
55604;BME280;41468;48.838;9.330;2023-04-20T08:14:21;98067.53;;;7.81;70.24
55604;BME280;41468;48.838;9.330;2023-04-20T08:16:48;98063.22;;;8.15;72.04
55604;BME280;41468;48.838;9.330;2023-04-20T08:19:15;98045.06;;;7.84;69.16
55604;BME280;41468;48.838;9.330;2023-04-20T08:21:41;98048.19;;;7.67;69.55
55604;BME280;41468;48.838;9.330;2023-04-20T08:24:09;98056.53;;;7.74;69.46
55604;BME280;41468;48.838;9.330;2023-04-20T08:26:35;98047.53;;;7.38;71.36
55604;BME280;41468;48.838;9.330;2023-04-20T08:29:03;98050.75;;;7.60;70.44
55604;BME280;41468;48.838;9.330;2023-04-20T08:31:31;98048.22;;;7.51;70.73
55604;BME280;41468;48.838;9.330;2023-04-20T08:33:58;98053.47;;;7.60;70.92
55604;BME280;41468;48.838;9.330;2023-04-20T08:36:25;98051.28;;;7.49;71.09
55604;BME280;41468;48.838;9.330;2023-04-20T08:39:13;98054.97;;;7.57;70.86
55604;BME280;41468;48.838;9.330;2023-04-20T08:41:40;98058.06;;;7.40;71.23
55604;BME280;41468;48.838;9.330;2023-04-20T08:44:07;98051.16;;;7.42;70.79
55604;BME280;41468;48.838;9.330;2023-04-20T08:46:35;98049.66;;;7.45;70.68
55604;BME280;41468;48.838;9.330;2023-04-20T08:49:02;98050.94;;;7.51;71.43
55604;BME280;41468;48.838;9.330;2023-04-20T08:51:29;98048.94;;;7.48;71.59
55604;BME280;41468;48.838;9.330;2023-04-20T08:54:07;98038.44;;;7.30;72.38
55604;BME280;41468;48.838;9.330;2023-04-20T08:56:35;98041.97;;;7.31;71.81
55604;BME280;41468;48.838;9.330;2023-04-20T08:59:02;98042.47;;;7.37;71.84
55604;BME280;41468;48.838;9.330;2023-04-20T09:01:31;98043.19;;;7.34;73.15
55604;BME280;41468;48.838;9.330;2023-04-20T09:04:02;98042.56;;;7.40;74.48
55604;BME280;41468;48.838;9.330;2023-04-20T09:06:48;98047.66;;;7.42;74.35
55604;BME280;41468;48.838;9.330;2023-04-20T09:09:19;98050.25;;;7.54;72.44
55604;BME280;41468;48.838;9.330;2023-04-20T09:11:46;98049.63;;;7.61;72.50
55604;BME280;41468;48.838;9.330;2023-04-20T09:14:14;98037.09;;;7.56;72.70
55604;BME280;41468;48.838;9.330;2023-04-20T09:16:52;98036.81;;;7.61;73.00
55604;BME280;41468;48.838;9.330;2023-04-20T09:19:23;98045.81;;;7.65;73.03
55604;BME280;41468;48.838;9.330;2023-04-20T09:21:52;98031.47;;;7.65;72.50
55604;BME280;41468;48.838;9.330;2023-04-20T09:24:20;98035.94;;;7.57;72.64
55604;BME280;41468;48.838;9.330;2023-04-20T09:26:47;98034.19;;;7.65;72.43
55604;BME280;41468;48.838;9.330;2023-04-20T09:29:19;98032.19;;;7.81;72.74
55604;BME280;41468;48.838;9.330;2023-04-20T09:31:51;98028.31;;;7.98;72.12
55604;BME280;41468;48.838;9.330;2023-04-20T09:34:18;98031.78;;;7.79;71.68
55604;BME280;41468;48.838;9.330;2023-04-20T09:36:48;98025.47;;;7.75;71.92
55604;BME280;41468;48.838;9.330;2023-04-20T09:39:21;98026.63;;;7.74;71.99
55604;BME280;41468;48.838;9.330;2023-04-20T09:41:50;98031.13;;;7.86;72.17
55604;BME280;41468;48.838;9.330;2023-04-20T09:44:17;98027.38;;;7.90;72.59
55604;BME280;41468;48.838;9.330;2023-04-20T09:46:45;98024.94;;;8.05;72.72
55604;BME280;41468;48.838;9.330;2023-04-20T09:49:13;98021.22;;;7.93;73.51
55604;BME280;41468;48.838;9.330;2023-04-20T09:51:42;98014.91;;;7.89;73.29
55604;BME280;41468;48.838;9.330;2023-04-20T09:54:12;98017.56;;;8.05;73.20
55604;BME280;41468;48.838;9.330;2023-04-20T09:56:40;98012.56;;;8.07;73.66
55604;BME280;41468;48.838;9.330;2023-04-20T09:59:07;98022.91;;;8.21;73.07
55604;BME280;41468;48.838;9.330;2023-04-20T10:01:34;98025.16;;;7.96;72.09
55604;BME280;41468;48.838;9.330;2023-04-20T10:04:07;98022.16;;;8.01;72.69
55604;BME280;41468;48.838;9.330;2023-04-20T10:06:37;98025.44;;;8.10;72.02
55604;BME280;41468;48.838;9.330;2023-04-20T10:09:06;98015.53;;;8.22;70.91
55604;BME280;41468;48.838;9.330;2023-04-20T10:11:38;98017.03;;;8.19;72.17
55604;BME280;41468;48.838;9.330;2023-04-20T10:14:23;98017.22;;;8.07;73.36
55604;BME280;41468;48.838;9.330;2023-04-20T10:17:07;98018.84;;;8.11;72.73
55604;BME280;41468;48.838;9.330;2023-04-20T10:19:44;98012.47;;;8.23;71.68
55604;BME280;41468;48.838;9.330;2023-04-20T10:22:25;98010.97;;;8.26;72.93
55604;BME280;41468;48.838;9.330;2023-04-20T10:24:56;98015.13;;;8.39;73.45
55604;BME280;41468;48.838;9.330;2023-04-20T10:27:22;98013.19;;;8.39;71.96
55604;BME280;41468;48.838;9.330;2023-04-20T10:29:49;98010.91;;;8.22;74.21
55604;BME280;41468;48.838;9.330;2023-04-20T10:32:26;98003.44;;;8.19;74.33
55604;BME280;41468;48.838;9.330;2023-04-20T10:35:10;97997.72;;;8.24;73.76
55604;BME280;41468;48.838;9.330;2023-04-20T10:37:49;97998.09;;;8.42;74.34
55604;BME280;41468;48.838;9.330;2023-04-20T10:40:23;97994.94;;;8.21;77.12
55604;BME280;41468;48.838;9.330;2023-04-20T10:42:50;98001.44;;;8.16;80.57
55604;BME280;41468;48.838;9.330;2023-04-20T10:45:17;97990.44;;;8.09;77.36
55604;BME280;41468;48.838;9.330;2023-04-20T10:47:44;97990.00;;;8.07;79.82
55604;BME280;41468;48.838;9.330;2023-04-20T10:50:12;97988.84;;;8.08;81.63
55604;BME280;41468;48.838;9.330;2023-04-20T10:52:41;97977.47;;;8.22;78.99
55604;BME280;41468;48.838;9.330;2023-04-20T10:55:37;97972.19;;;8.09;82.46
55604;BME280;41468;48.838;9.330;2023-04-20T10:58:04;97963.16;;;8.05;86.14
55604;BME280;41468;48.838;9.330;2023-04-20T11:00:31;97967.81;;;8.05;84.89
55604;BME280;41468;48.838;9.330;2023-04-20T11:02:58;97963.94;;;8.06;84.77
55604;BME280;41468;48.838;9.330;2023-04-20T11:05:26;97957.50;;;8.14;84.56
55604;BME280;41468;48.838;9.330;2023-04-20T11:07:53;97952.59;;;7.81;84.82
55604;BME280;41468;48.838;9.330;2023-04-20T11:10:22;97949.81;;;7.58;83.25
55604;BME280;41468;48.838;9.330;2023-04-20T11:12:50;97941.16;;;7.71;86.24
55604;BME280;41468;48.838;9.330;2023-04-20T11:15:32;97923.34;;;7.93;86.75
55604;BME280;41468;48.838;9.330;2023-04-20T11:18:10;97929.69;;;8.01;86.44
55604;BME280;41468;48.838;9.330;2023-04-20T11:20:49;97930.16;;;8.26;82.81
55604;BME280;41468;48.838;9.330;2023-04-20T11:23:21;97918.13;;;8.27;83.89
55604;BME280;41468;48.838;9.330;2023-04-20T11:25:52;97915.31;;;8.01;85.41
55604;BME280;41468;48.838;9.330;2023-04-20T11:28:20;97904.28;;;8.13;85.71
55604;BME280;41468;48.838;9.330;2023-04-20T11:30:47;97901.59;;;8.59;87.25
55604;BME280;41468;48.838;9.330;2023-04-20T11:33:27;97897.16;;;8.74;83.35
55604;BME280;41468;48.838;9.330;2023-04-20T11:35:57;97896.28;;;8.93;78.86
55604;BME280;41468;48.838;9.330;2023-04-20T11:38:32;97910.00;;;9.00;80.87
55604;BME280;41468;48.838;9.330;2023-04-20T11:41:04;97905.22;;;9.20;78.82
55604;BME280;41468;48.838;9.330;2023-04-20T11:43:34;97904.03;;;9.17;79.04
55604;BME280;41468;48.838;9.330;2023-04-20T11:46:01;97904.19;;;9.01;76.82
55604;BME280;41468;48.838;9.330;2023-04-20T11:48:31;97902.19;;;8.98;77.37
55604;BME280;41468;48.838;9.330;2023-04-20T11:50:58;97900.38;;;9.06;76.26
55604;BME280;41468;48.838;9.330;2023-04-20T11:53:25;97905.59;;;9.18;77.80
55604;BME280;41468;48.838;9.330;2023-04-20T11:55:52;97908.63;;;9.13;74.27
55604;BME280;41468;48.838;9.330;2023-04-20T11:58:18;97916.31;;;9.07;74.14
55604;BME280;41468;48.838;9.330;2023-04-20T12:00:45;97921.22;;;8.95;75.65
55604;BME280;41468;48.838;9.330;2023-04-20T12:03:12;97923.25;;;9.01;75.83
55604;BME280;41468;48.838;9.330;2023-04-20T12:05:43;97924.03;;;9.02;76.47
55604;BME280;41468;48.838;9.330;2023-04-20T12:08:10;97919.63;;;8.94;73.77
55604;BME280;41468;48.838;9.330;2023-04-20T12:10:36;97917.13;;;8.81;74.61
55604;BME280;41468;48.838;9.330;2023-04-20T12:13:05;97928.88;;;8.62;73.40
55604;BME280;41468;48.838;9.330;2023-04-20T12:15:32;97920.47;;;8.71;74.13
55604;BME280;41468;48.838;9.330;2023-04-20T12:17:58;97923.53;;;8.70;74.28
55604;BME280;41468;48.838;9.330;2023-04-20T12:20:25;97921.50;;;8.63;76.69
55604;BME280;41468;48.838;9.330;2023-04-20T12:22:52;97932.66;;;8.81;76.33
55604;BME280;41468;48.838;9.330;2023-04-20T12:25:19;97929.31;;;8.91;76.02
55604;BME280;41468;48.838;9.330;2023-04-20T12:27:45;97925.53;;;8.73;75.87
55604;BME280;41468;48.838;9.330;2023-04-20T12:30:15;97917.44;;;8.76;76.30
55604;BME280;41468;48.838;9.330;2023-04-20T12:32:42;97927.59;;;8.56;77.48
55604;BME280;41468;48.838;9.330;2023-04-20T12:35:08;97919.84;;;8.81;78.28
55604;BME280;41468;48.838;9.330;2023-04-20T12:37:35;97907.97;;;8.93;76.13
55604;BME280;41468;48.838;9.330;2023-04-20T12:40:02;97907.25;;;9.00;74.17
55604;BME280;41468;48.838;9.330;2023-04-20T12:42:31;97917.03;;;9.01;74.63
55604;BME280;41468;48.838;9.330;2023-04-20T12:44:58;97916.72;;;9.06;75.33
55604;BME280;41468;48.838;9.330;2023-04-20T12:47:25;97909.59;;;8.98;74.91
55604;BME280;41468;48.838;9.330;2023-04-20T12:49:52;97914.97;;;8.94;74.48
55604;BME280;41468;48.838;9.330;2023-04-20T12:52:20;97914.19;;;8.94;74.46
55604;BME280;41468;48.838;9.330;2023-04-20T12:54:46;97908.84;;;8.74;74.71
55604;BME280;41468;48.838;9.330;2023-04-20T12:57:13;97910.41;;;8.75;74.52
55604;BME280;41468;48.838;9.330;2023-04-20T12:59:40;97900.97;;;8.69;74.34
55604;BME280;41468;48.838;9.330;2023-04-20T13:02:07;97902.22;;;8.75;74.18
55604;BME280;41468;48.838;9.330;2023-04-20T13:04:38;97906.91;;;8.75;75.33
55604;BME280;41468;48.838;9.330;2023-04-20T13:07:05;97896.47;;;8.80;74.80
55604;BME280;41468;48.838;9.330;2023-04-20T13:09:32;97910.31;;;8.45;74.58
55604;BME280;41468;48.838;9.330;2023-04-20T13:11:59;97899.91;;;8.51;75.09
55604;BME280;41468;48.838;9.330;2023-04-20T13:14:25;97895.25;;;8.51;75.14
55604;BME280;41468;48.838;9.330;2023-04-20T13:16:52;97900.16;;;8.42;74.20
55604;BME280;41468;48.838;9.330;2023-04-20T13:19:20;97903.72;;;8.27;75.03
55604;BME280;41468;48.838;9.330;2023-04-20T13:21:47;97898.47;;;8.37;75.36
55604;BME280;41468;48.838;9.330;2023-04-20T13:24:14;97899.81;;;8.44;75.27